D50

Crosby Municipal Airport

Crosby, North Dakota, USA
METAR KD50 221955Z AUTO 28017G23KT 10SM CLR 26/06 A3004 RMK AO2
Observed Flight Rules
Jul-22 @ 19:55 UTC (17 minutes ago) Visual Flight Rules
Wind Visibility Clouds
280° at 17 knots
 Gusting to 23 knots
10 miles
  • Clear skies
Temperatures Readings
Current 26°C / 79°F
Dewpoint 6°C / 43°F
Humidity 28%
Altimeter 30.04" Hg
Pressure 1017 hPa
Elevation 595
METAR KD50 221955Z AUTO 28017G23KT 10SM CLR 26/06 A3004 RMK AO2
Observed Flight Rules
Jul-22 @ 19:55 UTC
(17 minutes ago)
VFR
Wind Visibility
280° at 17 knots
 Gusting to 23 knots
10 miles
Clouds
  • Clear skies
Temperature Dewpoint
26°C / 79°F 6°C / 43°F
Humidity Altimeter Pressure
28% 30.04" Hg 1017 hPa